Phoenix, Arizona
Traffic Map
Current Weather Conditions
Phoenix, Arizona
Scattered Clouds
Scattered Clouds
19°
Feels Like: 19°
Wind Chill: 19° Ceiling: Unl
Heat Index: 19° Visibility: 10mi
Dew Point: -6° Wind: 0mph
Humidity: 18% Direction: ° ()
Pressure: 29.96in Gusts: 0mph
Raw Report DataKPHX 210151Z 00000KT 10SM SCT290 19/M06 A2996 RMK AO2 SLP137 T01891061
Traffic Incident Summary
Active as of:
Severity:
Category:
InformationThere was an issue retrieving the traffic information for this location. Please try a different location or try again shortly.
Advertisements
Track Severe Weather on mobile